sensor_id;sensor_type;location;lat;lon;timestamp;temperature;humidity
77496;SHT31;66600;48.378;9.948;2023-02-15T00:01:33;-0.23;96.84
77496;SHT31;66600;48.378;9.948;2023-02-15T00:03:59;-0.19;96.75
77496;SHT31;66600;48.378;9.948;2023-02-15T00:06:24;-0.20;96.47
77496;SHT31;66600;48.378;9.948;2023-02-15T00:08:50;-0.23;96.26
77496;SHT31;66600;48.378;9.948;2023-02-15T00:11:17;-0.23;96.22
77496;SHT31;66600;48.378;9.948;2023-02-15T00:14:14;-0.03;96.79
77496;SHT31;66600;48.378;9.948;2023-02-15T00:16:42;0.02;96.82
77496;SHT31;66600;48.378;9.948;2023-02-15T00:19:09;0.02;96.66
77496;SHT31;66600;48.378;9.948;2023-02-15T00:21:35;0.00;96.48
77496;SHT31;66600;48.378;9.948;2023-02-15T00:24:02;0.05;96.45
77496;SHT31;66600;48.378;9.948;2023-02-15T00:26:29;-0.14;95.63
77496;SHT31;66600;48.378;9.948;2023-02-15T00:28:55;-0.11;96.07
77496;SHT31;66600;48.378;9.948;2023-02-15T00:31:20;-0.02;96.27
77496;SHT31;66600;48.378;9.948;2023-02-15T00:33:46;-0.07;96.09
77496;SHT31;66600;48.378;9.948;2023-02-15T00:36:12;-0.06;96.26
77496;SHT31;66600;48.378;9.948;2023-02-15T00:38:38;0.05;96.40
77496;SHT31;66600;48.378;9.948;2023-02-15T00:41:06;0.05;96.17
77496;SHT31;66600;48.378;9.948;2023-02-15T00:43:32;0.07;95.98
77496;SHT31;66600;48.378;9.948;2023-02-15T00:45:58;0.00;95.78
77496;SHT31;66600;48.378;9.948;2023-02-15T00:48:24;0.04;96.03
77496;SHT31;66600;48.378;9.948;2023-02-15T00:50:53;0.08;96.12
77496;SHT31;66600;48.378;9.948;2023-02-15T00:53:19;0.14;96.02
77496;SHT31;66600;48.378;9.948;2023-02-15T00:55:45;0.10;95.95
77496;SHT31;66600;48.378;9.948;2023-02-15T00:58:11;0.07;95.76
77496;SHT31;66600;48.378;9.948;2023-02-15T01:00:38;0.01;95.59
77496;SHT31;66600;48.378;9.948;2023-02-15T01:03:04;0.05;95.80
77496;SHT31;66600;48.378;9.948;2023-02-15T01:05:30;-0.05;95.65
77496;SHT31;66600;48.378;9.948;2023-02-15T01:07:56;-0.07;95.61
77496;SHT31;66600;48.378;9.948;2023-02-15T01:10:22;-0.10;95.81
77496;SHT31;66600;48.378;9.948;2023-02-15T01:12:47;-0.10;95.94
77496;SHT31;66600;48.378;9.948;2023-02-15T01:15:13;-0.16;95.87
77496;SHT31;66600;48.378;9.948;2023-02-15T01:17:38;-0.11;95.72
77496;SHT31;66600;48.378;9.948;2023-02-15T01:20:07;-0.28;94.95
77496;SHT31;66600;48.378;9.948;2023-02-15T01:22:32;-0.45;95.19
77496;SHT31;66600;48.378;9.948;2023-02-15T01:24:58;-0.51;95.38
77496;SHT31;66600;48.378;9.948;2023-02-15T01:27:23;-0.51;95.35
77496;SHT31;66600;48.378;9.948;2023-02-15T01:29:48;-0.55;95.53
77496;SHT31;66600;48.378;9.948;2023-02-15T01:32:14;-0.53;95.66
77496;SHT31;66600;48.378;9.948;2023-02-15T01:34:39;-0.34;95.56
77496;SHT31;66600;48.378;9.948;2023-02-15T01:37:04;-0.58;95.40
77496;SHT31;66600;48.378;9.948;2023-02-15T01:39:30;-0.96;96.15
77496;SHT31;66600;48.378;9.948;2023-02-15T01:41:55;-0.91;97.01
77496;SHT31;66600;48.378;9.948;2023-02-15T01:47:09;-1.02;96.62
77496;SHT31;66600;48.378;9.948;2023-02-15T01:49:36;-1.07;97.19
77496;SHT31;66600;48.378;9.948;2023-02-15T01:52:02;-1.07;97.44
77496;SHT31;66600;48.378;9.948;2023-02-15T01:54:30;-0.93;97.64
77496;SHT31;66600;48.378;9.948;2023-02-15T01:56:58;-0.76;97.62
77496;SHT31;66600;48.378;9.948;2023-02-15T01:59:25;-0.81;97.02
77496;SHT31;66600;48.378;9.948;2023-02-15T02:01:53;-0.58;97.11
77496;SHT31;66600;48.378;9.948;2023-02-15T02:04:24;-0.44;96.95
77496;SHT31;66600;48.378;9.948;2023-02-15T02:06:51;-0.42;96.45
77496;SHT31;66600;48.378;9.948;2023-02-15T02:09:17;-0.48;96.26
77496;SHT31;66600;48.378;9.948;2023-02-15T02:11:44;-0.44;96.45
77496;SHT31;66600;48.378;9.948;2023-02-15T02:14:11;-0.42;96.20
77496;SHT31;66600;48.378;9.948;2023-02-15T02:16:58;-0.41;95.94
77496;SHT31;66600;48.378;9.948;2023-02-15T02:19:46;-0.44;95.84
77496;SHT31;66600;48.378;9.948;2023-02-15T02:22:43;-0.33;96.15
77496;SHT31;66600;48.378;9.948;2023-02-15T02:31:05;-0.76;95.74
77496;SHT31;66600;48.378;9.948;2023-02-15T02:36:20;-0.72;96.47
77496;SHT31;66600;48.378;9.948;2023-02-15T02:38:51;-0.69;96.45
77496;SHT31;66600;48.378;9.948;2023-02-15T02:41:27;-0.58;96.32
77496;SHT31;66600;48.378;9.948;2023-02-15T02:44:01;-0.55;96.16
77496;SHT31;66600;48.378;9.948;2023-02-15T02:46:37;-0.45;96.31
77496;SHT31;66600;48.378;9.948;2023-02-15T02:49:04;-0.36;95.91
77496;SHT31;66600;48.378;9.948;2023-02-15T02:51:29;-0.36;95.48
77496;SHT31;66600;48.378;9.948;2023-02-15T02:53:56;-0.41;94.99
77496;SHT31;66600;48.378;9.948;2023-02-15T02:56:33;-0.69;94.56
77496;SHT31;66600;48.378;9.948;2023-02-15T03:01:34;-0.64;95.93
77496;SHT31;66600;48.378;9.948;2023-02-15T03:04:13;-0.62;96.06
77496;SHT31;66600;48.378;9.948;2023-02-15T03:06:58;-0.60;96.00
77496;SHT31;66600;48.378;9.948;2023-02-15T03:09:37;-0.50;96.35
77496;SHT31;66600;48.378;9.948;2023-02-15T03:12:11;-0.51;95.99
77496;SHT31;66600;48.378;9.948;2023-02-15T03:14:40;-0.38;96.14
77496;SHT31;66600;48.378;9.948;2023-02-15T03:17:06;-0.38;96.06
77496;SHT31;66600;48.378;9.948;2023-02-15T03:19:35;-0.31;96.04
77496;SHT31;66600;48.378;9.948;2023-02-15T03:22:04;-0.36;95.86
77496;SHT31;66600;48.378;9.948;2023-02-15T03:24:38;-0.40;95.57
77496;SHT31;66600;48.378;9.948;2023-02-15T03:27:08;-0.42;95.55
77496;SHT31;66600;48.378;9.948;2023-02-15T03:29:37;-0.34;95.89
77496;SHT31;66600;48.378;9.948;2023-02-15T03:32:04;-0.36;95.95
77496;SHT31;66600;48.378;9.948;2023-02-15T03:34:32;-0.33;95.89
77496;SHT31;66600;48.378;9.948;2023-02-15T03:39:38;-0.24;95.71
77496;SHT31;66600;48.378;9.948;2023-02-15T03:42:23;-0.37;95.26
77496;SHT31;66600;48.378;9.948;2023-02-15T03:47:19;-0.37;95.32
77496;SHT31;66600;48.378;9.948;2023-02-15T03:49:50;-0.45;94.79
77496;SHT31;66600;48.378;9.948;2023-02-15T03:52:17;-0.40;94.66
77496;SHT31;66600;48.378;9.948;2023-02-15T03:54:44;-0.53;94.46
77496;SHT31;66600;48.378;9.948;2023-02-15T03:57:16;-0.61;95.06
77496;SHT31;66600;48.378;9.948;2023-02-15T04:00:03;-0.68;95.01
77496;SHT31;66600;48.378;9.948;2023-02-15T04:05:36;-0.89;95.45
77496;SHT31;66600;48.378;9.948;2023-02-15T04:08:02;-0.85;95.35
77496;SHT31;66600;48.378;9.948;2023-02-15T04:10:27;-0.86;95.59
77496;SHT31;66600;48.378;9.948;2023-02-15T04:13:11;-0.74;95.81
77496;SHT31;66600;48.378;9.948;2023-02-15T04:15:37;-0.81;95.00
77496;SHT31;66600;48.378;9.948;2023-02-15T04:18:20;-0.95;94.55
77496;SHT31;66600;48.378;9.948;2023-02-15T04:20:46;-0.93;95.34
77496;SHT31;66600;48.378;9.948;2023-02-15T04:23:30;-0.99;95.25
77496;SHT31;66600;48.378;9.948;2023-02-15T04:26:14;-1.04;95.14
77496;SHT31;66600;48.378;9.948;2023-02-15T04:28:39;-0.97;95.14
77496;SHT31;66600;48.378;9.948;2023-02-15T04:31:04;-0.95;94.82
77496;SHT31;66600;48.378;9.948;2023-02-15T04:33:30;-0.96;94.65
77496;SHT31;66600;48.378;9.948;2023-02-15T04:35:55;-1.06;94.86
77496;SHT31;66600;48.378;9.948;2023-02-15T04:38:21;-1.12;94.55
77496;SHT31;66600;48.378;9.948;2023-02-15T04:40:51;-1.17;94.68
77496;SHT31;66600;48.378;9.948;2023-02-15T04:43:18;-1.16;94.49
77496;SHT31;66600;48.378;9.948;2023-02-15T04:45:48;-1.39;93.93
77496;SHT31;66600;48.378;9.948;2023-02-15T04:48:15;-1.29;95.03
77496;SHT31;66600;48.378;9.948;2023-02-15T04:50:40;-1.29;95.19
77496;SHT31;66600;48.378;9.948;2023-02-15T04:53:06;-1.24;94.49
77496;SHT31;66600;48.378;9.948;2023-02-15T04:55:31;-1.23;95.06
77496;SHT31;66600;48.378;9.948;2023-02-15T04:57:56;-1.23;94.76
77496;SHT31;66600;48.378;9.948;2023-02-15T05:00:22;-1.39;95.01
77496;SHT31;66600;48.378;9.948;2023-02-15T05:02:47;-1.33;94.94
77496;SHT31;66600;48.378;9.948;2023-02-15T05:05:12;-1.30;94.81
77496;SHT31;66600;48.378;9.948;2023-02-15T05:07:40;-1.41;95.23
77496;SHT31;66600;48.378;9.948;2023-02-15T05:10:05;-1.47;95.41
77496;SHT31;66600;48.378;9.948;2023-02-15T05:12:31;-1.41;95.41
77496;SHT31;66600;48.378;9.948;2023-02-15T05:14:56;-1.50;95.43
77496;SHT31;66600;48.378;9.948;2023-02-15T05:17:22;-1.44;96.18
77496;SHT31;66600;48.378;9.948;2023-02-15T05:19:47;-1.41;95.95
77496;SHT31;66600;48.378;9.948;2023-02-15T05:22:12;-1.36;96.34
77496;SHT31;66600;48.378;9.948;2023-02-15T05:24:38;-1.21;96.43
77496;SHT31;66600;48.378;9.948;2023-02-15T05:27:21;-1.21;96.08
77496;SHT31;66600;48.378;9.948;2023-02-15T05:30:06;-1.36;95.39
77496;SHT31;66600;48.378;9.948;2023-02-15T05:32:37;-1.31;96.12
77496;SHT31;66600;48.378;9.948;2023-02-15T05:35:03;-1.14;96.45
77496;SHT31;66600;48.378;9.948;2023-02-15T05:37:28;-1.12;96.26
77496;SHT31;66600;48.378;9.948;2023-02-15T05:39:53;-1.06;96.30
77496;SHT31;66600;48.378;9.948;2023-02-15T05:42:19;-1.07;95.85
77496;SHT31;66600;48.378;9.948;2023-02-15T05:44:44;-1.03;95.73
77496;SHT31;66600;48.378;9.948;2023-02-15T05:47:09;-1.04;95.70
77496;SHT31;66600;48.378;9.948;2023-02-15T05:49:35;-1.06;95.74
77496;SHT31;66600;48.378;9.948;2023-02-15T05:52:01;-1.16;95.66
77496;SHT31;66600;48.378;9.948;2023-02-15T05:54:26;-1.21;95.47
77496;SHT31;66600;48.378;9.948;2023-02-15T05:56:52;-1.31;95.32
77496;SHT31;66600;48.378;9.948;2023-02-15T05:59:17;-1.36;95.84
77496;SHT31;66600;48.378;9.948;2023-02-15T06:01:42;-1.36;95.73
77496;SHT31;66600;48.378;9.948;2023-02-15T06:04:07;-1.37;96.05
77496;SHT31;66600;48.378;9.948;2023-02-15T06:06:33;-1.31;96.27
77496;SHT31;66600;48.378;9.948;2023-02-15T06:08:59;-1.27;96.28
77496;SHT31;66600;48.378;9.948;2023-02-15T06:11:24;-1.34;95.99
77496;SHT31;66600;48.378;9.948;2023-02-15T06:13:50;-1.39;95.94
77496;SHT31;66600;48.378;9.948;2023-02-15T06:16:15;-1.47;95.60
77496;SHT31;66600;48.378;9.948;2023-02-15T06:18:41;-1.55;95.84
77496;SHT31;66600;48.378;9.948;2023-02-15T06:21:06;-1.54;95.85
77496;SHT31;66600;48.378;9.948;2023-02-15T06:23:32;-1.58;95.64
77496;SHT31;66600;48.378;9.948;2023-02-15T06:25:57;-1.69;95.61
77496;SHT31;66600;48.378;9.948;2023-02-15T06:28:22;-1.72;95.69
77496;SHT31;66600;48.378;9.948;2023-02-15T06:30:50;-1.62;95.57
77496;SHT31;66600;48.378;9.948;2023-02-15T06:33:15;-1.55;95.64
77496;SHT31;66600;48.378;9.948;2023-02-15T06:35:40;-1.50;95.63
77496;SHT31;66600;48.378;9.948;2023-02-15T06:38:06;-1.47;95.49
77496;SHT31;66600;48.378;9.948;2023-02-15T06:40:31;-1.54;95.49
77496;SHT31;66600;48.378;9.948;2023-02-15T06:42:56;-1.52;95.43
77496;SHT31;66600;48.378;9.948;2023-02-15T06:45:22;-1.39;95.61
77496;SHT31;66600;48.378;9.948;2023-02-15T06:47:47;-1.40;95.25
77496;SHT31;66600;48.378;9.948;2023-02-15T06:50:12;-1.34;94.70
77496;SHT31;66600;48.378;9.948;2023-02-15T06:52:38;-1.41;94.88
77496;SHT31;66600;48.378;9.948;2023-02-15T06:55:03;-1.43;94.96
77496;SHT31;66600;48.378;9.948;2023-02-15T06:57:28;-1.41;94.85
77496;SHT31;66600;48.378;9.948;2023-02-15T06:59:54;-1.39;94.78
77496;SHT31;66600;48.378;9.948;2023-02-15T07:02:19;-1.34;94.76
77496;SHT31;66600;48.378;9.948;2023-02-15T07:04:44;-1.27;94.70
77496;SHT31;66600;48.378;9.948;2023-02-15T07:07:11;-1.30;94.46
77496;SHT31;66600;48.378;9.948;2023-02-15T07:09:37;-1.26;94.32
77496;SHT31;66600;48.378;9.948;2023-02-15T07:12:02;-1.13;93.48
77496;SHT31;66600;48.378;9.948;2023-02-15T07:14:51;-1.20;93.85
77496;SHT31;66600;48.378;9.948;2023-02-15T07:17:16;-1.13;94.06
77496;SHT31;66600;48.378;9.948;2023-02-15T07:19:43;-1.16;93.74
77496;SHT31;66600;48.378;9.948;2023-02-15T07:22:08;-1.24;93.53
77496;SHT31;66600;48.378;9.948;2023-02-15T07:24:33;-1.34;94.26
77496;SHT31;66600;48.378;9.948;2023-02-15T07:26:59;-1.30;94.44
77496;SHT31;66600;48.378;9.948;2023-02-15T07:29:24;-1.34;94.28
77496;SHT31;66600;48.378;9.948;2023-02-15T07:31:50;-1.40;94.83
77496;SHT31;66600;48.378;9.948;2023-02-15T07:34:15;-1.55;94.26
77496;SHT31;66600;48.378;9.948;2023-02-15T07:36:41;-1.61;94.87
77496;SHT31;66600;48.378;9.948;2023-02-15T07:39:07;-1.50;95.46
77496;SHT31;66600;48.378;9.948;2023-02-15T07:41:32;-1.47;95.50
77496;SHT31;66600;48.378;9.948;2023-02-15T07:43:57;-1.43;94.72
77496;SHT31;66600;48.378;9.948;2023-02-15T07:46:23;-1.26;94.74
77496;SHT31;66600;48.378;9.948;2023-02-15T07:48:48;-1.23;94.30
77496;SHT31;66600;48.378;9.948;2023-02-15T07:51:13;-1.12;94.13
77496;SHT31;66600;48.378;9.948;2023-02-15T07:53:40;-1.19;93.56
77496;SHT31;66600;48.378;9.948;2023-02-15T07:56:11;-1.12;93.46
77496;SHT31;66600;48.378;9.948;2023-02-15T07:58:37;-1.13;93.67
77496;SHT31;66600;48.378;9.948;2023-02-15T08:01:29;-0.97;93.29
77496;SHT31;66600;48.378;9.948;2023-02-15T08:03:56;-1.19;93.33
77496;SHT31;66600;48.378;9.948;2023-02-15T08:06:23;-1.24;93.04
77496;SHT31;66600;48.378;9.948;2023-02-15T08:08:48;-1.26;93.27
77496;SHT31;66600;48.378;9.948;2023-02-15T08:11:28;-1.34;94.08
77496;SHT31;66600;48.378;9.948;2023-02-15T08:14:19;-1.17;94.18
77496;SHT31;66600;48.378;9.948;2023-02-15T08:16:53;-1.14;94.21
77496;SHT31;66600;48.378;9.948;2023-02-15T08:19:20;-0.99;93.96
77496;SHT31;66600;48.378;9.948;2023-02-15T08:21:49;-0.95;93.23
77496;SHT31;66600;48.378;9.948;2023-02-15T08:24:15;-0.81;92.79
77496;SHT31;66600;48.378;9.948;2023-02-15T08:26:41;-0.76;92.64
77496;SHT31;66600;48.378;9.948;2023-02-15T08:29:09;-0.74;92.91
77496;SHT31;66600;48.378;9.948;2023-02-15T08:31:35;-0.72;92.51
77496;SHT31;66600;48.378;9.948;2023-02-15T08:34:02;-0.71;92.81
77496;SHT31;66600;48.378;9.948;2023-02-15T08:36:29;-0.69;92.64
77496;SHT31;66600;48.378;9.948;2023-02-15T08:39:01;-0.66;92.60
77496;SHT31;66600;48.378;9.948;2023-02-15T08:41:32;-0.76;92.33
77496;SHT31;66600;48.378;9.948;2023-02-15T08:44:01;-0.66;92.63
77496;SHT31;66600;48.378;9.948;2023-02-15T08:46:28;-0.58;92.28
77496;SHT31;66600;48.378;9.948;2023-02-15T08:48:54;-0.40;92.22
77496;SHT31;66600;48.378;9.948;2023-02-15T08:51:22;-0.34;91.40
77496;SHT31;66600;48.378;9.948;2023-02-15T08:53:52;-0.19;91.23
77496;SHT31;66600;48.378;9.948;2023-02-15T08:56:23;-0.11;91.04
77496;SHT31;66600;48.378;9.948;2023-02-15T08:58:49;-0.11;90.32
77496;SHT31;66600;48.378;9.948;2023-02-15T09:01:17;-0.16;90.35
77496;SHT31;66600;48.378;9.948;2023-02-15T09:03:46;-0.05;90.68
77496;SHT31;66600;48.378;9.948;2023-02-15T09:06:11;0.00;90.80
77496;SHT31;66600;48.378;9.948;2023-02-15T09:08:37;-0.10;89.78
77496;SHT31;66600;48.378;9.948;2023-02-15T09:11:06;-0.11;90.53
77496;SHT31;66600;48.378;9.948;2023-02-15T09:13:32;-0.02;90.35
77496;SHT31;66600;48.378;9.948;2023-02-15T09:16:00;-0.07;90.77
77496;SHT31;66600;48.378;9.948;2023-02-15T09:18:26;-0.05;90.73
77496;SHT31;66600;48.378;9.948;2023-02-15T09:20:51;-0.09;91.06
77496;SHT31;66600;48.378;9.948;2023-02-15T09:23:16;-0.11;90.29
77496;SHT31;66600;48.378;9.948;2023-02-15T09:25:42;0.05;89.86
77496;SHT31;66600;48.378;9.948;2023-02-15T09:28:08;0.17;89.74
77496;SHT31;66600;48.378;9.948;2023-02-15T09:30:33;0.29;90.22
77496;SHT31;66600;48.378;9.948;2023-02-15T09:32:58;0.19;89.61
77496;SHT31;66600;48.378;9.948;2023-02-15T09:35:24;0.28;89.94
77496;SHT31;66600;48.378;9.948;2023-02-15T09:37:49;0.28;90.06
77496;SHT31;66600;48.378;9.948;2023-02-15T09:40:16;0.22;89.75
77496;SHT31;66600;48.378;9.948;2023-02-15T09:42:58;0.11;90.40
77496;SHT31;66600;48.378;9.948;2023-02-15T09:48:32;0.21;90.01
77496;SHT31;66600;48.378;9.948;2023-02-15T09:54:34;0.26;90.30
77496;SHT31;66600;48.378;9.948;2023-02-15T09:57:04;0.41;89.92
77496;SHT31;66600;48.378;9.948;2023-02-15T10:07:43;0.42;89.92
77496;SHT31;66600;48.378;9.948;2023-02-15T10:10:48;0.56;89.50
77496;SHT31;66600;48.378;9.948;2023-02-15T10:19:02;0.80;88.03
77496;SHT31;66600;48.378;9.948;2023-02-15T10:21:58;0.88;88.31
77496;SHT31;66600;48.378;9.948;2023-02-15T10:24:47;0.84;88.68
77496;SHT31;66600;48.378;9.948;2023-02-15T10:27:19;0.93;87.72
77496;SHT31;66600;48.378;9.948;2023-02-15T10:32:26;0.77;87.03
77496;SHT31;66600;48.378;9.948;2023-02-15T10:35:09;0.80;89.66
77496;SHT31;66600;48.378;9.948;2023-02-15T10:37:49;1.07;89.36
77496;SHT31;66600;48.378;9.948;2023-02-15T10:43:21;1.39;87.67
77496;SHT31;66600;48.378;9.948;2023-02-15T10:46:13;1.39;87.28
77496;SHT31;66600;48.378;9.948;2023-02-15T10:51:29;1.46;86.54
77496;SHT31;66600;48.378;9.948;2023-02-15T10:54:08;1.67;86.83
77496;SHT31;66600;48.378;9.948;2023-02-15T10:56:47;1.72;87.16
77496;SHT31;66600;48.378;9.948;2023-02-15T11:02:09;1.59;86.91
77496;SHT31;66600;48.378;9.948;2023-02-15T11:04:55;1.46;87.91
77496;SHT31;66600;48.378;9.948;2023-02-15T11:07:48;1.79;85.60
77496;SHT31;66600;48.378;9.948;2023-02-15T11:10:35;1.90;86.07
77496;SHT31;66600;48.378;9.948;2023-02-15T11:13:07;2.03;84.80
77496;SHT31;66600;48.378;9.948;2023-02-15T11:15:38;2.03;85.02
77496;SHT31;66600;48.378;9.948;2023-02-15T11:18:28;1.80;86.25
77496;SHT31;66600;48.378;9.948;2023-02-15T11:21:01;1.73;87.33
77496;SHT31;66600;48.378;9.948;2023-02-15T11:23:28;1.83;87.08
77496;SHT31;66600;48.378;9.948;2023-02-15T11:26:02;2.38;85.69
77496;SHT31;66600;48.378;9.948;2023-02-15T11:28:47;2.11;84.91
77496;SHT31;66600;48.378;9.948;2023-02-15T11:31:23;2.28;85.49
77496;SHT31;66600;48.378;9.948;2023-02-15T11:33:53;2.37;85.37
77496;SHT31;66600;48.378;9.948;2023-02-15T11:36:27;2.59;85.18
77496;SHT31;66600;48.378;9.948;2023-02-15T11:39:01;2.75;83.62
77496;SHT31;66600;48.378;9.948;2023-02-15T11:41:32;2.82;83.40
77496;SHT31;66600;48.378;9.948;2023-02-15T11:44:19;3.05;82.83
77496;SHT31;66600;48.378;9.948;2023-02-15T11:46:46;2.83;83.40
77496;SHT31;66600;48.378;9.948;2023-02-15T11:49:34;3.00;83.70
77496;SHT31;66600;48.378;9.948;2023-02-15T11:52:02;3.22;82.83
77496;SHT31;66600;48.378;9.948;2023-02-15T11:54:32;3.21;82.42
77496;SHT31;66600;48.378;9.948;2023-02-15T12:00:00;3.22;82.48
77496;SHT31;66600;48.378;9.948;2023-02-15T12:02:30;3.49;83.57
77496;SHT31;66600;48.378;9.948;2023-02-15T12:05:01;4.01;81.49
77496;SHT31;66600;48.378;9.948;2023-02-15T12:07:35;4.03;81.01
77496;SHT31;66600;48.378;9.948;2023-02-15T12:12:41;4.45;80.55
77496;SHT31;66600;48.378;9.948;2023-02-15T12:15:08;4.84;79.48
77496;SHT31;66600;48.378;9.948;2023-02-15T12:17:50;4.58;79.18
77496;SHT31;66600;48.378;9.948;2023-02-15T12:22:53;4.42;79.46
77496;SHT31;66600;48.378;9.948;2023-02-15T12:25:26;4.58;79.31
77496;SHT31;66600;48.378;9.948;2023-02-15T12:27:54;3.72;80.66
77496;SHT31;66600;48.378;9.948;2023-02-15T12:30:25;4.10;82.24
77496;SHT31;66600;48.378;9.948;2023-02-15T12:32:56;4.00;81.41
77496;SHT31;66600;48.378;9.948;2023-02-15T12:35:32;4.27;82.22
77496;SHT31;66600;48.378;9.948;2023-02-15T12:38:21;4.42;80.89
77496;SHT31;66600;48.378;9.948;2023-02-15T12:41:00;4.44;80.66
77496;SHT31;66600;48.378;9.948;2023-02-15T12:43:30;4.34;81.21
77496;SHT31;66600;48.378;9.948;2023-02-15T12:46:21;4.08;82.46
77496;SHT31;66600;48.378;9.948;2023-02-15T12:49:04;4.25;81.33
77496;SHT31;66600;48.378;9.948;2023-02-15T12:51:42;4.38;82.58
77496;SHT31;66600;48.378;9.948;2023-02-15T12:56:55;4.55;83.58
77496;SHT31;66600;48.378;9.948;2023-02-15T12:59:22;4.68;82.65
77496;SHT31;66600;48.378;9.948;2023-02-15T13:01:48;4.96;81.75
77496;SHT31;66600;48.378;9.948;2023-02-15T13:04:18;4.96;81.73
77496;SHT31;66600;48.378;9.948;2023-02-15T13:06:48;5.07;80.53
77496;SHT31;66600;48.378;9.948;2023-02-15T13:09:17;5.14;80.74
77496;SHT31;66600;48.378;9.948;2023-02-15T13:11:44;5.07;82.19
77496;SHT31;66600;48.378;9.948;2023-02-15T13:14:18;5.13;81.52
77496;SHT31;66600;48.378;9.948;2023-02-15T13:16:46;5.31;80.96
77496;SHT31;66600;48.378;9.948;2023-02-15T13:19:16;5.37;81.05
77496;SHT31;66600;48.378;9.948;2023-02-15T13:21:46;5.40;80.55
77496;SHT31;66600;48.378;9.948;2023-02-15T13:24:18;5.62;80.96
77496;SHT31;66600;48.378;9.948;2023-02-15T13:26:46;5.62;80.09
77496;SHT31;66600;48.378;9.948;2023-02-15T13:29:21;5.72;80.56
77496;SHT31;66600;48.378;9.948;2023-02-15T13:31:48;5.97;80.25
77496;SHT31;66600;48.378;9.948;2023-02-15T13:34:19;6.05;80.09
77496;SHT31;66600;48.378;9.948;2023-02-15T13:36:57;6.27;80.28
77496;SHT31;66600;48.378;9.948;2023-02-15T13:42:25;6.44;79.58
77496;SHT31;66600;48.378;9.948;2023-02-15T13:48:00;6.59;77.66
77496;SHT31;66600;48.378;9.948;2023-02-15T13:50:35;6.71;76.82
77496;SHT31;66600;48.378;9.948;2023-02-15T13:55:36;6.96;78.02
77496;SHT31;66600;48.378;9.948;2023-02-15T13:58:18;7.04;77.66
77496;SHT31;66600;48.378;9.948;2023-02-15T14:03:59;7.16;77.49
77496;SHT31;66600;48.378;9.948;2023-02-15T14:06:46;7.13;77.84
77496;SHT31;66600;48.378;9.948;2023-02-15T14:12:24;7.40;77.53
77496;SHT31;66600;48.378;9.948;2023-02-15T14:15:06;7.52;77.38
77496;SHT31;66600;48.378;9.948;2023-02-15T14:17:58;7.66;76.37
77496;SHT31;66600;48.378;9.948;2023-02-15T14:20:41;7.90;76.00
77496;SHT31;66600;48.378;9.948;2023-02-15T14:26:08;8.02;74.45
77496;SHT31;66600;48.378;9.948;2023-02-15T14:28:56;7.93;73.71
77496;SHT31;66600;48.378;9.948;2023-02-15T14:31:36;8.07;72.95
77496;SHT31;66600;48.378;9.948;2023-02-15T14:34:03;8.44;71.12
77496;SHT31;66600;48.378;9.948;2023-02-15T14:36:30;8.61;70.54
77496;SHT31;66600;48.378;9.948;2023-02-15T14:39:22;8.55;72.31
77496;SHT31;66600;48.378;9.948;2023-02-15T14:42:18;8.72;71.60
77496;SHT31;66600;48.378;9.948;2023-02-15T14:44:52;8.81;71.46
77496;SHT31;66600;48.378;9.948;2023-02-15T14:47:31;9.07;70.86
77496;SHT31;66600;48.378;9.948;2023-02-15T14:49:58;9.36;69.85
77496;SHT31;66600;48.378;9.948;2023-02-15T14:52:23;9.10;69.98
77496;SHT31;66600;48.378;9.948;2023-02-15T14:59:59;9.34;68.82
77496;SHT31;66600;48.378;9.948;2023-02-15T15:02:28;9.62;68.00
77496;SHT31;66600;48.378;9.948;2023-02-15T15:05:11;9.36;68.18
77496;SHT31;66600;48.378;9.948;2023-02-15T15:07:48;9.26;68.40
77496;SHT31;66600;48.378;9.948;2023-02-15T15:12:53;9.62;66.08
77496;SHT31;66600;48.378;9.948;2023-02-15T15:20:59;9.37;66.56
77496;SHT31;66600;48.378;9.948;2023-02-15T15:25:58;9.47;66.72
77496;SHT31;66600;48.378;9.948;2023-02-15T15:31:09;9.55;66.23
77496;SHT31;66600;48.378;9.948;2023-02-15T15:39:26;9.24;65.98
77496;SHT31;66600;48.378;9.948;2023-02-15T15:47:58;8.90;67.79
77496;SHT31;66600;48.378;9.948;2023-02-15T15:50:25;8.81;68.11
77496;SHT31;66600;48.378;9.948;2023-02-15T15:52:53;8.67;68.51
77496;SHT31;66600;48.378;9.948;2023-02-15T15:55:22;8.57;69.02
77496;SHT31;66600;48.378;9.948;2023-02-15T15:57:53;8.42;70.09
77496;SHT31;66600;48.378;9.948;2023-02-15T16:00:34;8.26;70.68
77496;SHT31;66600;48.378;9.948;2023-02-15T16:03:00;8.10;71.13
77496;SHT31;66600;48.378;9.948;2023-02-15T16:05:25;7.96;71.73
77496;SHT31;66600;48.378;9.948;2023-02-15T16:07:51;7.82;72.21
77496;SHT31;66600;48.378;9.948;2023-02-15T16:10:25;7.59;72.90
77496;SHT31;66600;48.378;9.948;2023-02-15T16:12:51;7.51;73.40
77496;SHT31;66600;48.378;9.948;2023-02-15T16:15:21;7.65;73.14
77496;SHT31;66600;48.378;9.948;2023-02-15T16:17:51;7.72;72.38
77496;SHT31;66600;48.378;9.948;2023-02-15T16:20:23;7.66;72.20
77496;SHT31;66600;48.378;9.948;2023-02-15T16:22:55;7.59;72.54
77496;SHT31;66600;48.378;9.948;2023-02-15T16:25:34;7.24;73.23
77496;SHT31;66600;48.378;9.948;2023-02-15T16:28:11;6.71;74.82
77496;SHT31;66600;48.378;9.948;2023-02-15T16:30:37;6.24;76.11
77496;SHT31;66600;48.378;9.948;2023-02-15T16:33:11;5.73;77.79
77496;SHT31;66600;48.378;9.948;2023-02-15T16:35:39;5.31;79.18
77496;SHT31;66600;48.378;9.948;2023-02-15T16:38:08;5.00;81.46
77496;SHT31;66600;48.378;9.948;2023-02-15T16:40:51;4.68;82.61
77496;SHT31;66600;48.378;9.948;2023-02-15T16:43:24;4.42;84.16
77496;SHT31;66600;48.378;9.948;2023-02-15T16:45:56;4.37;85.40
77496;SHT31;66600;48.378;9.948;2023-02-15T16:48:25;4.14;85.43
77496;SHT31;66600;48.378;9.948;2023-02-15T16:50:53;3.93;85.38
77496;SHT31;66600;48.378;9.948;2023-02-15T16:53:24;3.75;85.43
77496;SHT31;66600;48.378;9.948;2023-02-15T16:55:56;3.62;86.28
77496;SHT31;66600;48.378;9.948;2023-02-15T16:58:42;3.51;86.75
77496;SHT31;66600;48.378;9.948;2023-02-15T17:01:11;3.55;88.15
77496;SHT31;66600;48.378;9.948;2023-02-15T17:03:39;3.46;87.59
77496;SHT31;66600;48.378;9.948;2023-02-15T17:06:19;3.42;87.97
77496;SHT31;66600;48.378;9.948;2023-02-15T17:08:44;3.36;88.03
77496;SHT31;66600;48.378;9.948;2023-02-15T17:11:18;3.32;88.75
77496;SHT31;66600;48.378;9.948;2023-02-15T17:14:11;3.20;89.32
77496;SHT31;66600;48.378;9.948;2023-02-15T17:16:44;3.11;89.30
77496;SHT31;66600;48.378;9.948;2023-02-15T17:19:31;3.00;89.17
77496;SHT31;66600;48.378;9.948;2023-02-15T17:22:01;2.90;89.89
77496;SHT31;66600;48.378;9.948;2023-02-15T17:24:37;2.86;90.02
77496;SHT31;66600;48.378;9.948;2023-02-15T17:27:11;2.73;90.04
77496;SHT31;66600;48.378;9.948;2023-02-15T17:29:39;2.69;90.47
77496;SHT31;66600;48.378;9.948;2023-02-15T17:32:13;2.63;90.41
77496;SHT31;66600;48.378;9.948;2023-02-15T17:37:32;2.53;91.54
77496;SHT31;66600;48.378;9.948;2023-02-15T17:40:19;2.39;91.35
77496;SHT31;66600;48.378;9.948;2023-02-15T17:42:45;2.37;91.39
77496;SHT31;66600;48.378;9.948;2023-02-15T17:45:10;2.21;91.91
77496;SHT31;66600;48.378;9.948;2023-02-15T17:47:35;2.18;92.26
77496;SHT31;66600;48.378;9.948;2023-02-15T17:50:02;2.15;92.44
77496;SHT31;66600;48.378;9.948;2023-02-15T17:52:29;1.97;92.52
77496;SHT31;66600;48.378;9.948;2023-02-15T17:54:54;1.84;92.77